sensor_id;sensor_type;location;lat;lon;timestamp;P1;durP1;ratioP1;P2;durP2;ratioP2
466;SDS011;72290;48.808;9.222;2024-01-15T06:02:18;21.40;;;7.53;;
466;SDS011;72290;48.808;9.222;2024-01-15T06:04:44;23.73;;;8.87;;
466;SDS011;72290;48.808;9.222;2024-01-15T06:07:10;14.60;;;7.53;;
466;SDS011;72290;48.808;9.222;2024-01-15T06:09:36;21.17;;;8.20;;
466;SDS011;72290;48.808;9.222;2024-01-15T06:12:03;17.10;;;7.20;;
466;SDS011;72290;48.808;9.222;2024-01-15T06:14:29;27.20;;;8.30;;
466;SDS011;72290;48.808;9.222;2024-01-15T06:16:55;20.33;;;8.30;;
466;SDS011;72290;48.808;9.222;2024-01-15T06:19:21;23.60;;;9.20;;
466;SDS011;72290;48.808;9.222;2024-01-15T06:21:47;21.47;;;9.40;;
466;SDS011;72290;48.808;9.222;2024-01-15T06:24:13;24.77;;;7.63;;
466;SDS011;72290;48.808;9.222;2024-01-15T06:26:40;21.30;;;8.47;;
466;SDS011;72290;48.808;9.222;2024-01-15T06:29:06;15.03;;;7.27;;
466;SDS011;72290;48.808;9.222;2024-01-15T06:31:32;21.60;;;8.70;;
466;SDS011;72290;48.808;9.222;2024-01-15T06:33:58;25.17;;;8.90;;
466;SDS011;72290;48.808;9.222;2024-01-15T06:36:24;19.10;;;8.43;;
466;SDS011;72290;48.808;9.222;2024-01-15T06:38:50;23.47;;;8.93;;
466;SDS011;72290;48.808;9.222;2024-01-15T06:41:16;23.00;;;8.70;;
466;SDS011;72290;48.808;9.222;2024-01-15T06:43:42;29.60;;;9.97;;
466;SDS011;72290;48.808;9.222;2024-01-15T06:46:08;20.83;;;8.43;;
466;SDS011;72290;48.808;9.222;2024-01-15T06:48:34;17.67;;;7.73;;
466;SDS011;72290;48.808;9.222;2024-01-15T06:51:00;18.57;;;7.83;;
466;SDS011;72290;48.808;9.222;2024-01-15T06:53:26;24.33;;;9.40;;
466;SDS011;72290;48.808;9.222;2024-01-15T06:55:52;25.53;;;9.63;;
466;SDS011;72290;48.808;9.222;2024-01-15T06:58:18;20.23;;;7.43;;
466;SDS011;72290;48.808;9.222;2024-01-15T07:00:44;25.00;;;8.27;;
466;SDS011;72290;48.808;9.222;2024-01-15T07:03:10;25.83;;;8.50;;
466;SDS011;72290;48.808;9.222;2024-01-15T07:05:36;20.30;;;8.27;;
466;SDS011;72290;48.808;9.222;2024-01-15T07:08:02;16.87;;;7.33;;
466;SDS011;72290;48.808;9.222;2024-01-15T07:10:28;21.57;;;8.90;;
466;SDS011;72290;48.808;9.222;2024-01-15T07:12:54;18.83;;;8.70;;
466;SDS011;72290;48.808;9.222;2024-01-15T07:15:20;19.27;;;6.67;;
466;SDS011;72290;48.808;9.222;2024-01-15T07:17:46;21.60;;;8.80;;
466;SDS011;72290;48.808;9.222;2024-01-15T07:20:12;21.27;;;8.50;;
466;SDS011;72290;48.808;9.222;2024-01-15T07:22:38;23.73;;;8.77;;
466;SDS011;72290;48.808;9.222;2024-01-15T07:25:04;22.80;;;8.17;;
466;SDS011;72290;48.808;9.222;2024-01-15T07:27:31;19.07;;;8.53;;
466;SDS011;72290;48.808;9.222;2024-01-15T07:29:57;20.30;;;7.40;;
466;SDS011;72290;48.808;9.222;2024-01-15T07:32:23;18.30;;;8.07;;
466;SDS011;72290;48.808;9.222;2024-01-15T07:34:49;24.90;;;7.80;;
466;SDS011;72290;48.808;9.222;2024-01-15T07:37:15;19.10;;;6.43;;
466;SDS011;72290;48.808;9.222;2024-01-15T07:39:41;12.03;;;5.80;;
466;SDS011;72290;48.808;9.222;2024-01-15T07:42:07;16.37;;;7.70;;
466;SDS011;72290;48.808;9.222;2024-01-15T07:44:33;20.33;;;8.00;;
466;SDS011;72290;48.808;9.222;2024-01-15T07:46:59;13.83;;;6.43;;
466;SDS011;72290;48.808;9.222;2024-01-15T07:49:25;20.10;;;7.33;;
466;SDS011;72290;48.808;9.222;2024-01-15T07:51:51;20.77;;;7.33;;
466;SDS011;72290;48.808;9.222;2024-01-15T07:54:17;23.40;;;8.07;;
466;SDS011;72290;48.808;9.222;2024-01-15T07:56:53;20.27;;;7.70;;
466;SDS011;72290;48.808;9.222;2024-01-15T07:59:19;22.10;;;7.93;;
466;SDS011;72290;48.808;9.222;2024-01-15T08:01:45;16.63;;;7.70;;
466;SDS011;72290;48.808;9.222;2024-01-15T08:04:12;17.20;;;6.80;;
466;SDS011;72290;48.808;9.222;2024-01-15T08:06:38;13.97;;;6.07;;
466;SDS011;72290;48.808;9.222;2024-01-15T08:09:04;18.13;;;7.80;;
466;SDS011;72290;48.808;9.222;2024-01-15T08:11:30;23.07;;;7.27;;
466;SDS011;72290;48.808;9.222;2024-01-15T08:13:56;20.63;;;6.60;;
466;SDS011;72290;48.808;9.222;2024-01-15T08:16:22;16.43;;;6.70;;
466;SDS011;72290;48.808;9.222;2024-01-15T08:18:50;19.63;;;8.17;;
466;SDS011;72290;48.808;9.222;2024-01-15T08:21:16;21.20;;;7.83;;
466;SDS011;72290;48.808;9.222;2024-01-15T08:23:42;19.10;;;7.93;;
466;SDS011;72290;48.808;9.222;2024-01-15T08:26:08;16.80;;;6.30;;
466;SDS011;72290;48.808;9.222;2024-01-15T08:28:34;19.60;;;7.00;;
466;SDS011;72290;48.808;9.222;2024-01-15T08:31:00;16.83;;;6.30;;
466;SDS011;72290;48.808;9.222;2024-01-15T08:33:26;19.90;;;6.90;;
466;SDS011;72290;48.808;9.222;2024-01-15T08:35:52;14.50;;;6.77;;
466;SDS011;72290;48.808;9.222;2024-01-15T08:38:18;25.07;;;7.70;;
466;SDS011;72290;48.808;9.222;2024-01-15T08:40:44;14.57;;;6.70;;
466;SDS011;72290;48.808;9.222;2024-01-15T08:43:10;16.70;;;8.53;;
466;SDS011;72290;48.808;9.222;2024-01-15T08:45:36;15.50;;;7.63;;
466;SDS011;72290;48.808;9.222;2024-01-15T08:48:02;18.50;;;8.30;;
466;SDS011;72290;48.808;9.222;2024-01-15T08:50:28;16.70;;;6.33;;
466;SDS011;72290;48.808;9.222;2024-01-15T08:52:54;16.23;;;6.93;;
466;SDS011;72290;48.808;9.222;2024-01-15T08:55:21;18.00;;;6.50;;
466;SDS011;72290;48.808;9.222;2024-01-15T08:57:47;16.43;;;6.30;;
466;SDS011;72290;48.808;9.222;2024-01-15T09:00:13;17.97;;;6.37;;
466;SDS011;72290;48.808;9.222;2024-01-15T09:02:39;12.50;;;6.90;;
466;SDS011;72290;48.808;9.222;2024-01-15T09:05:05;17.70;;;7.03;;
466;SDS011;72290;48.808;9.222;2024-01-15T09:07:32;19.77;;;6.37;;
466;SDS011;72290;48.808;9.222;2024-01-15T09:09:58;9.87;;;5.37;;
466;SDS011;72290;48.808;9.222;2024-01-15T09:12:24;16.90;;;5.50;;
466;SDS011;72290;48.808;9.222;2024-01-15T09:14:50;9.60;;;5.23;;
466;SDS011;72290;48.808;9.222;2024-01-15T09:17:17;12.63;;;5.47;;
466;SDS011;72290;48.808;9.222;2024-01-15T09:19:43;18.90;;;6.30;;
466;SDS011;72290;48.808;9.222;2024-01-15T09:22:09;11.07;;;5.97;;
466;SDS011;72290;48.808;9.222;2024-01-15T09:24:35;11.53;;;5.93;;
466;SDS011;72290;48.808;9.222;2024-01-15T09:27:01;13.07;;;5.43;;
466;SDS011;72290;48.808;9.222;2024-01-15T09:29:27;10.03;;;5.47;;
466;SDS011;72290;48.808;9.222;2024-01-15T09:31:53;11.90;;;5.77;;
466;SDS011;72290;48.808;9.222;2024-01-15T09:34:19;14.87;;;5.80;;
466;SDS011;72290;48.808;9.222;2024-01-15T09:36:45;14.43;;;5.23;;
466;SDS011;72290;48.808;9.222;2024-01-15T09:39:12;12.10;;;5.00;;
466;SDS011;72290;48.808;9.222;2024-01-15T09:41:38;14.93;;;5.77;;
466;SDS011;72290;48.808;9.222;2024-01-15T09:44:04;14.60;;;5.53;;
466;SDS011;72290;48.808;9.222;2024-01-15T09:46:32;12.33;;;5.40;;
466;SDS011;72290;48.808;9.222;2024-01-15T09:48:59;10.00;;;5.33;;
466;SDS011;72290;48.808;9.222;2024-01-15T09:51:26;17.20;;;6.13;;
466;SDS011;72290;48.808;9.222;2024-01-15T09:53:53;10.00;;;5.23;;
466;SDS011;72290;48.808;9.222;2024-01-15T09:56:20;8.17;;;4.70;;
466;SDS011;72290;48.808;9.222;2024-01-15T09:58:46;13.00;;;5.23;;
466;SDS011;72290;48.808;9.222;2024-01-15T10:01:14;14.90;;;4.50;;
466;SDS011;72290;48.808;9.222;2024-01-15T10:03:40;13.27;;;5.70;;
466;SDS011;72290;48.808;9.222;2024-01-15T10:06:06;10.00;;;5.07;;
466;SDS011;72290;48.808;9.222;2024-01-15T10:08:34;11.63;;;4.77;;
466;SDS011;72290;48.808;9.222;2024-01-15T10:11:02;24.73;;;5.63;;
466;SDS011;72290;48.808;9.222;2024-01-15T10:13:30;10.90;;;5.43;;
466;SDS011;72290;48.808;9.222;2024-01-15T10:15:56;10.43;;;5.30;;
466;SDS011;72290;48.808;9.222;2024-01-15T10:18:24;15.97;;;5.13;;
466;SDS011;72290;48.808;9.222;2024-01-15T10:20:50;11.03;;;5.00;;
466;SDS011;72290;48.808;9.222;2024-01-15T10:23:16;8.73;;;5.10;;
466;SDS011;72290;48.808;9.222;2024-01-15T10:25:42;8.70;;;4.20;;
466;SDS011;72290;48.808;9.222;2024-01-15T10:28:08;11.20;;;4.43;;
466;SDS011;72290;48.808;9.222;2024-01-15T10:30:34;11.67;;;5.53;;
466;SDS011;72290;48.808;9.222;2024-01-15T10:33:02;12.00;;;4.27;;
466;SDS011;72290;48.808;9.222;2024-01-15T10:35:32;15.30;;;4.80;;
466;SDS011;72290;48.808;9.222;2024-01-15T10:38:01;11.73;;;4.27;;
466;SDS011;72290;48.808;9.222;2024-01-15T10:40:28;10.37;;;5.30;;
466;SDS011;72290;48.808;9.222;2024-01-15T10:42:54;11.17;;;5.10;;
466;SDS011;72290;48.808;9.222;2024-01-15T10:45:20;11.17;;;4.40;;
466;SDS011;72290;48.808;9.222;2024-01-15T10:47:46;11.27;;;5.17;;
466;SDS011;72290;48.808;9.222;2024-01-15T10:50:13;7.50;;;3.90;;
466;SDS011;72290;48.808;9.222;2024-01-15T10:52:40;9.13;;;4.33;;
466;SDS011;72290;48.808;9.222;2024-01-15T10:55:09;10.57;;;4.13;;
466;SDS011;72290;48.808;9.222;2024-01-15T10:57:38;9.83;;;4.30;;
466;SDS011;72290;48.808;9.222;2024-01-15T11:00:05;10.87;;;4.03;;
466;SDS011;72290;48.808;9.222;2024-01-15T11:02:35;16.80;;;7.13;;
466;SDS011;72290;48.808;9.222;2024-01-15T11:05:02;8.60;;;4.30;;
466;SDS011;72290;48.808;9.222;2024-01-15T11:07:29;9.87;;;4.67;;
466;SDS011;72290;48.808;9.222;2024-01-15T11:09:56;8.03;;;4.43;;
466;SDS011;72290;48.808;9.222;2024-01-15T11:12:24;8.57;;;3.93;;
466;SDS011;72290;48.808;9.222;2024-01-15T11:14:51;10.93;;;3.90;;
466;SDS011;72290;48.808;9.222;2024-01-15T11:17:19;9.50;;;4.63;;
466;SDS011;72290;48.808;9.222;2024-01-15T11:19:48;8.70;;;4.23;;
466;SDS011;72290;48.808;9.222;2024-01-15T11:24:57;10.53;;;4.73;;
466;SDS011;72290;48.808;9.222;2024-01-15T11:27:40;10.33;;;4.23;;
466;SDS011;72290;48.808;9.222;2024-01-15T11:30:09;14.27;;;5.90;;
466;SDS011;72290;48.808;9.222;2024-01-15T11:32:35;12.50;;;4.20;;
466;SDS011;72290;48.808;9.222;2024-01-15T11:35:02;11.80;;;5.30;;
466;SDS011;72290;48.808;9.222;2024-01-15T11:37:29;11.33;;;4.63;;
466;SDS011;72290;48.808;9.222;2024-01-15T11:40:04;7.53;;;3.93;;
466;SDS011;72290;48.808;9.222;2024-01-15T11:42:35;15.77;;;6.80;;
466;SDS011;72290;48.808;9.222;2024-01-15T11:45:01;14.00;;;5.80;;
466;SDS011;72290;48.808;9.222;2024-01-15T11:50:13;12.83;;;5.57;;
466;SDS011;72290;48.808;9.222;2024-01-15T11:52:40;11.70;;;6.07;;
466;SDS011;72290;48.808;9.222;2024-01-15T11:55:22;16.60;;;6.23;;
466;SDS011;72290;48.808;9.222;2024-01-15T11:57:51;13.83;;;5.40;;
466;SDS011;72290;48.808;9.222;2024-01-15T12:00:18;13.67;;;6.90;;
466;SDS011;72290;48.808;9.222;2024-01-15T12:02:51;14.63;;;6.20;;
466;SDS011;72290;48.808;9.222;2024-01-15T12:05:18;10.63;;;6.30;;
466;SDS011;72290;48.808;9.222;2024-01-15T12:07:45;12.90;;;6.07;;
466;SDS011;72290;48.808;9.222;2024-01-15T12:10:12;17.90;;;6.20;;
466;SDS011;72290;48.808;9.222;2024-01-15T12:12:58;12.63;;;5.70;;
466;SDS011;72290;48.808;9.222;2024-01-15T12:15:25;12.67;;;5.53;;
466;SDS011;72290;48.808;9.222;2024-01-15T12:17:51;12.60;;;5.63;;
466;SDS011;72290;48.808;9.222;2024-01-15T12:20:17;12.53;;;4.90;;
466;SDS011;72290;48.808;9.222;2024-01-15T12:22:44;10.67;;;5.00;;
466;SDS011;72290;48.808;9.222;2024-01-15T12:25:10;11.53;;;5.20;;
466;SDS011;72290;48.808;9.222;2024-01-15T12:27:36;15.83;;;5.10;;
466;SDS011;72290;48.808;9.222;2024-01-15T12:30:02;22.83;;;5.90;;
466;SDS011;72290;48.808;9.222;2024-01-15T12:32:28;14.60;;;5.43;;
466;SDS011;72290;48.808;9.222;2024-01-15T12:34:54;12.60;;;5.77;;
466;SDS011;72290;48.808;9.222;2024-01-15T12:37:20;9.60;;;5.20;;
466;SDS011;72290;48.808;9.222;2024-01-15T12:39:47;14.70;;;6.50;;
466;SDS011;72290;48.808;9.222;2024-01-15T12:42:16;13.83;;;5.93;;
466;SDS011;72290;48.808;9.222;2024-01-15T12:44:43;14.60;;;6.43;;
466;SDS011;72290;48.808;9.222;2024-01-15T12:47:10;14.87;;;7.70;;
466;SDS011;72290;48.808;9.222;2024-01-15T12:49:36;14.07;;;5.63;;
466;SDS011;72290;48.808;9.222;2024-01-15T12:52:03;10.10;;;5.10;;
466;SDS011;72290;48.808;9.222;2024-01-15T12:54:29;9.10;;;4.80;;
466;SDS011;72290;48.808;9.222;2024-01-15T12:56:55;16.50;;;5.90;;
466;SDS011;72290;48.808;9.222;2024-01-15T12:59:21;13.83;;;5.67;;
466;SDS011;72290;48.808;9.222;2024-01-15T13:01:47;14.87;;;5.97;;
466;SDS011;72290;48.808;9.222;2024-01-15T13:04:22;14.97;;;5.73;;
466;SDS011;72290;48.808;9.222;2024-01-15T13:06:49;10.40;;;5.20;;
466;SDS011;72290;48.808;9.222;2024-01-15T13:09:15;16.20;;;7.07;;
466;SDS011;72290;48.808;9.222;2024-01-15T13:11:42;18.17;;;5.33;;
466;SDS011;72290;48.808;9.222;2024-01-15T13:14:07;11.50;;;6.17;;
466;SDS011;72290;48.808;9.222;2024-01-15T13:16:33;14.30;;;6.33;;
466;SDS011;72290;48.808;9.222;2024-01-15T13:18:59;17.80;;;5.90;;
466;SDS011;72290;48.808;9.222;2024-01-15T13:21:26;12.27;;;5.80;;
466;SDS011;72290;48.808;9.222;2024-01-15T13:23:52;14.20;;;4.90;;
466;SDS011;72290;48.808;9.222;2024-01-15T13:26:17;8.20;;;4.63;;
466;SDS011;72290;48.808;9.222;2024-01-15T13:28:44;15.87;;;5.20;;
466;SDS011;72290;48.808;9.222;2024-01-15T13:31:10;11.70;;;4.90;;
466;SDS011;72290;48.808;9.222;2024-01-15T13:33:36;10.00;;;4.97;;
466;SDS011;72290;48.808;9.222;2024-01-15T13:36:02;11.03;;;4.63;;
466;SDS011;72290;48.808;9.222;2024-01-15T13:38:28;10.30;;;4.20;;
466;SDS011;72290;48.808;9.222;2024-01-15T13:41:01;7.53;;;4.47;;
466;SDS011;72290;48.808;9.222;2024-01-15T13:43:26;9.10;;;5.00;;
466;SDS011;72290;48.808;9.222;2024-01-15T13:45:52;6.43;;;3.77;;
466;SDS011;72290;48.808;9.222;2024-01-15T13:48:19;10.43;;;4.60;;
466;SDS011;72290;48.808;9.222;2024-01-15T13:50:45;8.60;;;3.60;;
466;SDS011;72290;48.808;9.222;2024-01-15T13:53:11;8.17;;;4.10;;
466;SDS011;72290;48.808;9.222;2024-01-15T13:55:37;11.83;;;4.70;;
466;SDS011;72290;48.808;9.222;2024-01-15T13:58:03;7.90;;;4.40;;
466;SDS011;72290;48.808;9.222;2024-01-15T14:00:31;9.70;;;4.23;;
466;SDS011;72290;48.808;9.222;2024-01-15T14:02:56;14.63;;;4.60;;
466;SDS011;72290;48.808;9.222;2024-01-15T14:05:23;8.17;;;4.23;;
466;SDS011;72290;48.808;9.222;2024-01-15T14:07:49;11.80;;;4.80;;
466;SDS011;72290;48.808;9.222;2024-01-15T14:10:15;12.87;;;3.83;;
466;SDS011;72290;48.808;9.222;2024-01-15T14:12:41;12.13;;;4.20;;
466;SDS011;72290;48.808;9.222;2024-01-15T14:15:07;5.70;;;3.67;;
466;SDS011;72290;48.808;9.222;2024-01-15T14:17:34;10.20;;;4.43;;
466;SDS011;72290;48.808;9.222;2024-01-15T14:20:00;10.73;;;4.33;;
466;SDS011;72290;48.808;9.222;2024-01-15T14:22:25;8.70;;;4.03;;
466;SDS011;72290;48.808;9.222;2024-01-15T14:24:51;7.40;;;4.03;;
466;SDS011;72290;48.808;9.222;2024-01-15T14:27:18;6.07;;;3.60;;
466;SDS011;72290;48.808;9.222;2024-01-15T14:29:44;8.20;;;4.23;;
466;SDS011;72290;48.808;9.222;2024-01-15T14:32:11;9.43;;;4.23;;
466;SDS011;72290;48.808;9.222;2024-01-15T14:34:37;5.43;;;3.20;;
466;SDS011;72290;48.808;9.222;2024-01-15T14:37:03;7.67;;;4.17;;
466;SDS011;72290;48.808;9.222;2024-01-15T14:39:29;7.10;;;4.30;;
466;SDS011;72290;48.808;9.222;2024-01-15T14:41:58;6.60;;;3.93;;
466;SDS011;72290;48.808;9.222;2024-01-15T14:44:25;8.03;;;4.80;;
466;SDS011;72290;48.808;9.222;2024-01-15T14:46:51;8.27;;;4.77;;
466;SDS011;72290;48.808;9.222;2024-01-15T14:49:18;15.30;;;6.50;;
466;SDS011;72290;48.808;9.222;2024-01-15T14:51:44;13.67;;;6.13;;
466;SDS011;72290;48.808;9.222;2024-01-15T14:54:10;11.80;;;6.17;;
466;SDS011;72290;48.808;9.222;2024-01-15T14:56:36;20.43;;;8.23;;
466;SDS011;72290;48.808;9.222;2024-01-15T14:59:02;11.47;;;6.80;;
466;SDS011;72290;48.808;9.222;2024-01-15T15:01:28;13.53;;;7.53;;
466;SDS011;72290;48.808;9.222;2024-01-15T15:03:54;21.80;;;8.20;;
466;SDS011;72290;48.808;9.222;2024-01-15T15:06:20;16.70;;;8.23;;
466;SDS011;72290;48.808;9.222;2024-01-15T15:08:46;15.60;;;8.53;;
466;SDS011;72290;48.808;9.222;2024-01-15T15:11:12;28.53;;;9.33;;
466;SDS011;72290;48.808;9.222;2024-01-15T15:13:39;23.00;;;9.67;;
466;SDS011;72290;48.808;9.222;2024-01-15T15:16:05;19.07;;;8.70;;
466;SDS011;72290;48.808;9.222;2024-01-15T15:18:31;16.37;;;8.40;;
466;SDS011;72290;48.808;9.222;2024-01-15T15:20:57;18.00;;;8.87;;
466;SDS011;72290;48.808;9.222;2024-01-15T15:23:23;13.87;;;7.33;;
466;SDS011;72290;48.808;9.222;2024-01-15T15:25:49;20.03;;;7.50;;
466;SDS011;72290;48.808;9.222;2024-01-15T15:28:15;18.57;;;7.97;;
466;SDS011;72290;48.808;9.222;2024-01-15T15:30:41;18.00;;;8.17;;
466;SDS011;72290;48.808;9.222;2024-01-15T15:33:07;19.63;;;7.40;;
466;SDS011;72290;48.808;9.222;2024-01-15T15:35:33;15.83;;;8.03;;
466;SDS011;72290;48.808;9.222;2024-01-15T15:37:59;12.00;;;7.43;;
466;SDS011;72290;48.808;9.222;2024-01-15T15:40:25;18.70;;;7.53;;
466;SDS011;72290;48.808;9.222;2024-01-15T15:42:51;19.63;;;8.03;;
466;SDS011;72290;48.808;9.222;2024-01-15T15:45:17;16.43;;;7.47;;
466;SDS011;72290;48.808;9.222;2024-01-15T15:47:43;16.73;;;7.20;;
466;SDS011;72290;48.808;9.222;2024-01-15T15:50:09;12.70;;;6.50;;
466;SDS011;72290;48.808;9.222;2024-01-15T15:52:35;14.47;;;6.90;;
466;SDS011;72290;48.808;9.222;2024-01-15T15:55:01;28.23;;;7.93;;
466;SDS011;72290;48.808;9.222;2024-01-15T15:57:27;17.23;;;8.20;;
466;SDS011;72290;48.808;9.222;2024-01-15T15:59:54;17.60;;;8.70;;
466;SDS011;72290;48.808;9.222;2024-01-15T16:02:20;14.50;;;6.67;;
466;SDS011;72290;48.808;9.222;2024-01-15T16:04:46;19.80;;;7.40;;
466;SDS011;72290;48.808;9.222;2024-01-15T16:07:12;18.97;;;7.00;;
466;SDS011;72290;48.808;9.222;2024-01-15T16:09:39;14.67;;;7.50;;
466;SDS011;72290;48.808;9.222;2024-01-15T16:12:06;19.47;;;7.40;;
466;SDS011;72290;48.808;9.222;2024-01-15T16:14:33;23.37;;;7.33;;
466;SDS011;72290;48.808;9.222;2024-01-15T16:16:59;20.63;;;7.43;;
466;SDS011;72290;48.808;9.222;2024-01-15T16:19:25;15.87;;;6.60;;
466;SDS011;72290;48.808;9.222;2024-01-15T16:21:51;17.77;;;7.37;;
466;SDS011;72290;48.808;9.222;2024-01-15T16:24:17;13.80;;;6.33;;
466;SDS011;72290;48.808;9.222;2024-01-15T16:26:44;18.67;;;7.50;;
466;SDS011;72290;48.808;9.222;2024-01-15T16:29:10;17.53;;;7.50;;
466;SDS011;72290;48.808;9.222;2024-01-15T16:31:37;13.20;;;6.23;;
466;SDS011;72290;48.808;9.222;2024-01-15T16:34:03;14.43;;;6.80;;
466;SDS011;72290;48.808;9.222;2024-01-15T16:36:29;14.90;;;6.00;;
466;SDS011;72290;48.808;9.222;2024-01-15T16:38:55;15.73;;;6.77;;
466;SDS011;72290;48.808;9.222;2024-01-15T16:41:21;14.67;;;6.60;;
466;SDS011;72290;48.808;9.222;2024-01-15T16:43:47;11.77;;;6.40;;
466;SDS011;72290;48.808;9.222;2024-01-15T16:46:13;13.00;;;6.07;;
466;SDS011;72290;48.808;9.222;2024-01-15T16:48:39;12.50;;;6.53;;
466;SDS011;72290;48.808;9.222;2024-01-15T16:51:05;14.10;;;6.30;;
466;SDS011;72290;48.808;9.222;2024-01-15T16:53:31;12.77;;;6.50;;
466;SDS011;72290;48.808;9.222;2024-01-15T16:55:57;9.90;;;5.80;;
466;SDS011;72290;48.808;9.222;2024-01-15T16:58:23;11.83;;;6.60;;
466;SDS011;72290;48.808;9.222;2024-01-15T17:00:49;13.50;;;6.00;;
466;SDS011;72290;48.808;9.222;2024-01-15T17:03:15;18.27;;;6.23;;
466;SDS011;72290;48.808;9.222;2024-01-15T17:05:41;13.87;;;6.10;;
466;SDS011;72290;48.808;9.222;2024-01-15T17:08:07;12.33;;;5.20;;
466;SDS011;72290;48.808;9.222;2024-01-15T17:10:33;13.60;;;5.77;;
466;SDS011;72290;48.808;9.222;2024-01-15T17:12:59;11.80;;;5.73;;
466;SDS011;72290;48.808;9.222;2024-01-15T17:15:27;15.63;;;6.70;;
466;SDS011;72290;48.808;9.222;2024-01-15T17:17:53;11.97;;;5.23;;
466;SDS011;72290;48.808;9.222;2024-01-15T17:20:19;17.03;;;7.63;;
466;SDS011;72290;48.808;9.222;2024-01-15T17:22:45;14.63;;;6.33;;
466;SDS011;72290;48.808;9.222;2024-01-15T17:25:11;13.13;;;5.63;;
466;SDS011;72290;48.808;9.222;2024-01-15T17:27:40;11.43;;;5.90;;
466;SDS011;72290;48.808;9.222;2024-01-15T17:30:06;14.60;;;6.60;;
466;SDS011;72290;48.808;9.222;2024-01-15T17:32:35;10.50;;;5.80;;
466;SDS011;72290;48.808;9.222;2024-01-15T17:35:01;12.00;;;7.20;;
466;SDS011;72290;48.808;9.222;2024-01-15T17:37:28;9.37;;;6.13;;
466;SDS011;72290;48.808;9.222;2024-01-15T17:39:54;12.07;;;6.23;;
466;SDS011;72290;48.808;9.222;2024-01-15T17:42:20;21.23;;;6.80;;
466;SDS011;72290;48.808;9.222;2024-01-15T17:44:46;13.70;;;7.00;;
466;SDS011;72290;48.808;9.222;2024-01-15T17:47:12;15.00;;;6.83;;
466;SDS011;72290;48.808;9.222;2024-01-15T17:49:38;15.00;;;6.67;;
466;SDS011;72290;48.808;9.222;2024-01-15T17:52:04;10.93;;;6.17;;
466;SDS011;72290;48.808;9.222;2024-01-15T17:54:30;13.37;;;6.90;;
466;SDS011;72290;48.808;9.222;2024-01-15T17:56:57;14.87;;;7.53;;
466;SDS011;72290;48.808;9.222;2024-01-15T17:59:23;13.87;;;7.60;;
466;SDS011;72290;48.808;9.222;2024-01-15T18:01:49;11.70;;;5.60;;
466;SDS011;72290;48.808;9.222;2024-01-15T18:04:16;13.60;;;5.90;;
466;SDS011;72290;48.808;9.222;2024-01-15T18:06:44;14.00;;;5.20;;
466;SDS011;72290;48.808;9.222;2024-01-15T18:09:12;11.50;;;5.60;;
466;SDS011;72290;48.808;9.222;2024-01-15T18:11:41;9.60;;;5.70;;
466;SDS011;72290;48.808;9.222;2024-01-15T18:14:07;12.83;;;6.23;;
466;SDS011;72290;48.808;9.222;2024-01-15T18:16:33;9.63;;;5.17;;
466;SDS011;72290;48.808;9.222;2024-01-15T18:18:59;9.20;;;5.47;;
466;SDS011;72290;48.808;9.222;2024-01-15T18:21:25;10.90;;;5.30;;
466;SDS011;72290;48.808;9.222;2024-01-15T18:23:51;22.57;;;5.90;;
466;SDS011;72290;48.808;9.222;2024-01-15T18:26:17;9.33;;;5.10;;
466;SDS011;72290;48.808;9.222;2024-01-15T18:28:43;8.17;;;5.30;;
466;SDS011;72290;48.808;9.222;2024-01-15T18:31:10;11.13;;;5.97;;
466;SDS011;72290;48.808;9.222;2024-01-15T18:33:36;10.30;;;5.90;;
466;SDS011;72290;48.808;9.222;2024-01-15T18:36:02;15.00;;;5.70;;
466;SDS011;72290;48.808;9.222;2024-01-15T18:38:29;8.57;;;4.57;;
466;SDS011;72290;48.808;9.222;2024-01-15T18:41:01;10.43;;;5.73;;
466;SDS011;72290;48.808;9.222;2024-01-15T18:43:32;8.07;;;5.00;;
466;SDS011;72290;48.808;9.222;2024-01-15T18:46:03;12.03;;;6.17;;
466;SDS011;72290;48.808;9.222;2024-01-15T18:48:30;9.50;;;5.00;;
466;SDS011;72290;48.808;9.222;2024-01-15T18:50:56;13.90;;;5.70;;
466;SDS011;72290;48.808;9.222;2024-01-15T18:53:22;11.60;;;6.23;;
466;SDS011;72290;48.808;9.222;2024-01-15T18:55:48;22.27;;;5.70;;
466;SDS011;72290;48.808;9.222;2024-01-15T18:58:14;16.70;;;6.30;;
466;SDS011;72290;48.808;9.222;2024-01-15T19:00:41;12.30;;;5.73;;
466;SDS011;72290;48.808;9.222;2024-01-15T19:03:07;20.13;;;5.93;;
466;SDS011;72290;48.808;9.222;2024-01-15T19:05:33;12.77;;;4.93;;
466;SDS011;72290;48.808;9.222;2024-01-15T19:07:59;15.03;;;5.80;;
466;SDS011;72290;48.808;9.222;2024-01-15T19:10:25;14.10;;;5.20;;
466;SDS011;72290;48.808;9.222;2024-01-15T19:12:52;13.27;;;5.80;;
466;SDS011;72290;48.808;9.222;2024-01-15T19:15:18;10.37;;;5.10;;
466;SDS011;72290;48.808;9.222;2024-01-15T19:17:44;9.20;;;5.70;;
466;SDS011;72290;48.808;9.222;2024-01-15T19:20:10;7.90;;;4.93;;
466;SDS011;72290;48.808;9.222;2024-01-15T19:22:36;12.27;;;5.23;;
466;SDS011;72290;48.808;9.222;2024-01-15T19:25:02;9.57;;;4.67;;
466;SDS011;72290;48.808;9.222;2024-01-15T19:27:28;10.80;;;5.03;;
466;SDS011;72290;48.808;9.222;2024-01-15T19:29:54;32.97;;;4.90;;
466;SDS011;72290;48.808;9.222;2024-01-15T19:32:20;7.60;;;4.67;;
466;SDS011;72290;48.808;9.222;2024-01-15T19:34:47;8.73;;;4.47;;
466;SDS011;72290;48.808;9.222;2024-01-15T19:37:13;11.27;;;4.50;;
466;SDS011;72290;48.808;9.222;2024-01-15T19:39:39;8.30;;;4.97;;
466;SDS011;72290;48.808;9.222;2024-01-15T19:42:05;14.93;;;4.80;;
466;SDS011;72290;48.808;9.222;2024-01-15T19:44:31;11.83;;;4.90;;
466;SDS011;72290;48.808;9.222;2024-01-15T19:46:57;7.57;;;5.17;;
466;SDS011;72290;48.808;9.222;2024-01-15T19:49:23;8.90;;;4.87;;
466;SDS011;72290;48.808;9.222;2024-01-15T19:51:49;8.70;;;4.60;;
466;SDS011;72290;48.808;9.222;2024-01-15T19:54:15;21.47;;;4.30;;
466;SDS011;72290;48.808;9.222;2024-01-15T19:56:43;6.03;;;3.97;;
466;SDS011;72290;48.808;9.222;2024-01-15T19:59:09;9.70;;;5.03;;
466;SDS011;72290;48.808;9.222;2024-01-15T20:01:35;15.40;;;5.70;;
466;SDS011;72290;48.808;9.222;2024-01-15T20:04:01;10.03;;;4.20;;
466;SDS011;72290;48.808;9.222;2024-01-15T20:06:28;7.57;;;4.63;;
466;SDS011;72290;48.808;9.222;2024-01-15T20:08:54;6.77;;;4.17;;
466;SDS011;72290;48.808;9.222;2024-01-15T20:11:22;12.13;;;5.30;;
466;SDS011;72290;48.808;9.222;2024-01-15T20:13:48;12.47;;;5.10;;
466;SDS011;72290;48.808;9.222;2024-01-15T20:16:14;6.43;;;4.20;;
466;SDS011;72290;48.808;9.222;2024-01-15T20:18:41;7.77;;;4.30;;
466;SDS011;72290;48.808;9.222;2024-01-15T20:21:07;9.63;;;4.07;;
466;SDS011;72290;48.808;9.222;2024-01-15T20:23:33;10.97;;;4.63;;
466;SDS011;72290;48.808;9.222;2024-01-15T20:26:00;6.90;;;4.27;;
466;SDS011;72290;48.808;9.222;2024-01-15T20:28:26;7.97;;;4.43;;
466;SDS011;72290;48.808;9.222;2024-01-15T20:30:52;14.63;;;5.63;;
466;SDS011;72290;48.808;9.222;2024-01-15T20:33:18;11.90;;;4.73;;
466;SDS011;72290;48.808;9.222;2024-01-15T20:35:44;9.57;;;4.70;;
466;SDS011;72290;48.808;9.222;2024-01-15T20:38:10;9.13;;;4.77;;
466;SDS011;72290;48.808;9.222;2024-01-15T20:40:36;12.70;;;5.50;;
466;SDS011;72290;48.808;9.222;2024-01-15T20:43:02;11.20;;;4.70;;
466;SDS011;72290;48.808;9.222;2024-01-15T20:45:29;7.20;;;4.50;;
466;SDS011;72290;48.808;9.222;2024-01-15T20:47:55;7.10;;;4.03;;
466;SDS011;72290;48.808;9.222;2024-01-15T20:50:22;12.33;;;4.93;;
466;SDS011;72290;48.808;9.222;2024-01-15T20:52:48;9.33;;;4.20;;
466;SDS011;72290;48.808;9.222;2024-01-15T20:55:14;6.00;;;3.83;;
466;SDS011;72290;48.808;9.222;2024-01-15T20:57:41;11.23;;;4.10;;
466;SDS011;72290;48.808;9.222;2024-01-15T21:00:07;6.63;;;3.40;;
466;SDS011;72290;48.808;9.222;2024-01-15T21:02:34;14.20;;;3.93;;
466;SDS011;72290;48.808;9.222;2024-01-15T21:05:01;7.10;;;3.40;;
466;SDS011;72290;48.808;9.222;2024-01-15T21:07:27;5.87;;;3.37;;